KSPF/SPF METAR and TAF weather

Enter ICAO airport designator
Station Type Date Time Source
KSPF METAR 2022/11/27 08:35 UTC NOAA

KSPF 270835Z AUTO 18007KT 10SM CLR M06/M09 A2995 RMK AO2


Station Type Date Time Source
KSPF Decoded METAR 2022/11/27 08:35 UTC NOAA

Spearfish / Clyde Ice, SD, United States (KSPF) 44-29N 103-47W
Nov 27, 2022 - 03:35 AM EST / 2022.11.27 0835 UTC
Wind: from the S (180 degrees) at 8 MPH (7 KT):0
Visibility: 10 mile(s):0
Sky conditions: clear
Temperature: 21 F (-6 C)
Windchill: 12 F (-11 C):1
Dew Point: 15 F (-9 C)
Relative Humidity: 79%
Pressure (altimeter): 29.95 in. Hg (1014 hPa)
ob: KSPF 270835Z AUTO 18007KT 10SM CLR M06/M09 A2995 RMK AO2
cycle: 8

Station Type Date Time Source
KSPF TAF UTC NOAA

Error!

Example: see airport list